Terminal Aerodrome Forecast
Issued by NWS Wilmington, OH

Home | Current Version | Previous Version | Text Only | Print | Product List | Glossary On
Versions: 1 2 3 4 5 6 7 8 9 10 11 12 13 14 15 16 17 18 19 20 21 22 23 24 25 26 27 28 29 30 31 32 33
000
FTUS41 KILN 041938 AAA
TAFCMH
TAF AMD
KCMH 041938Z 0420/0518 17008KT P6SM VCTS BKN040CB
      TEMPO 0420/0422 26018G26KT 2SM -TSRA OVC022CB
     FM050100 VRB03KT P6SM SCT060
     FM051300 15005KT P6SM SCT040=

USA.gov is the U.S. government's official web portal to all federal, state and local government web resources and services.